createdAt,value
2017-12-21T00:01:08.694Z,-2.28
2017-12-21T00:03:36.004Z,-2.19
2017-12-21T00:06:03.477Z,-2.33
2017-12-21T00:08:30.127Z,-2.31
2017-12-21T00:10:57.647Z,-2.40
2017-12-21T00:13:24.327Z,-2.36
2017-12-21T00:15:50.978Z,-2.25
2017-12-21T00:18:18.410Z,-2.44
2017-12-21T00:20:45.122Z,-2.45
2017-12-21T00:23:11.767Z,-2.45
2017-12-21T00:25:38.452Z,-2.31
2017-12-21T00:28:05.095Z,-2.41
2017-12-21T00:30:31.775Z,-2.45
2017-12-21T00:32:58.458Z,-2.57
2017-12-21T00:35:25.281Z,-2.55
2017-12-21T00:37:52.649Z,-2.51
2017-12-21T00:40:19.308Z,-2.47
2017-12-21T00:42:45.945Z,-2.35
2017-12-21T00:45:12.625Z,-2.34
2017-12-21T00:47:40.089Z,-2.30
2017-12-21T00:50:07.465Z,-2.30
2017-12-21T00:52:34.097Z,-2.34
2017-12-21T00:55:01.507Z,-2.51
2017-12-21T00:57:28.171Z,-2.54
2017-12-21T00:59:54.799Z,-2.64
2017-12-21T01:02:21.487Z,-2.51
2017-12-21T01:04:48.885Z,-2.41
2017-12-21T01:07:15.572Z,-2.57
2017-12-21T01:09:42.976Z,-2.55
2017-12-21T01:12:09.670Z,-2.66
2017-12-21T01:14:36.301Z,-2.65
2017-12-21T01:17:02.950Z,-2.57
2017-12-21T01:19:29.593Z,-2.57
2017-12-21T01:21:57.007Z,-2.63
2017-12-21T01:24:23.667Z,-2.61
2017-12-21T01:26:50.317Z,-2.69
2017-12-21T01:29:16.974Z,-2.83
2017-12-21T01:31:43.630Z,-2.79
2017-12-21T01:34:11.042Z,-2.68
2017-12-21T01:36:37.698Z,-2.68
2017-12-21T01:39:04.396Z,-2.83
2017-12-21T01:41:31.106Z,-2.94
2017-12-21T01:43:57.790Z,-2.84
2017-12-21T01:46:25.351Z,-2.83
2017-12-21T01:48:52.002Z,-2.76
2017-12-21T01:51:18.678Z,-2.71
2017-12-21T01:53:45.359Z,-2.77
2017-12-21T01:56:13.702Z,-2.79
2017-12-21T01:58:40.383Z,-2.90
2017-12-21T02:01:07.870Z,-2.90
2017-12-21T02:03:34.524Z,-2.84
2017-12-21T02:06:01.293Z,-2.88
2017-12-21T02:08:27.989Z,-2.96
2017-12-21T02:10:55.508Z,-3.03
2017-12-21T02:13:22.183Z,-2.89
2017-12-21T02:15:49.620Z,-2.82
2017-12-21T02:18:16.272Z,-2.82
2017-12-21T02:20:43.026Z,-2.81
2017-12-21T02:23:11.546Z,-2.74
2017-12-21T02:25:38.258Z,-3.00
2017-12-21T02:28:05.792Z,-2.88
2017-12-21T02:30:32.571Z,-2.77
2017-12-21T02:33:00.050Z,-2.75
2017-12-21T02:35:27.055Z,-2.78
2017-12-21T02:37:53.828Z,-2.79
2017-12-21T02:40:21.851Z,-2.67
2017-12-21T02:42:48.550Z,-2.82
2017-12-21T02:45:16.046Z,-3.03
2017-12-21T02:47:42.749Z,-3.05
2017-12-21T02:50:10.532Z,-3.14
2017-12-21T02:52:37.281Z,-3.05
2017-12-21T02:55:04.016Z,-3.03
2017-12-21T02:57:30.768Z,-3.18
2017-12-21T02:59:57.576Z,-3.31
2017-12-21T03:02:24.294Z,-3.30
2017-12-21T03:04:51.770Z,-3.34
2017-12-21T03:07:18.522Z,-3.25
2017-12-21T03:09:45.277Z,-3.36
2017-12-21T03:12:12.747Z,-3.34
2017-12-21T03:14:40.267Z,-3.33
2017-12-21T03:17:06.980Z,-3.38
2017-12-21T03:19:33.657Z,-3.41
2017-12-21T03:22:00.372Z,-3.39
2017-12-21T03:24:27.120Z,-3.42
2017-12-21T03:26:54.476Z,-3.46
2017-12-21T03:29:21.174Z,-3.44
2017-12-21T03:31:48.911Z,-3.42
2017-12-21T03:34:16.484Z,-3.56
2017-12-21T03:36:43.194Z,-3.56
2017-12-21T03:39:09.834Z,-3.54
2017-12-21T03:41:36.524Z,-3.58
2017-12-21T03:44:03.274Z,-3.58
2017-12-21T03:46:30.031Z,-3.52
2017-12-21T03:48:58.410Z,-3.70
2017-12-21T03:51:25.170Z,-3.62
2017-12-21T03:53:53.036Z,-3.60
2017-12-21T03:56:20.706Z,-3.61
2017-12-21T03:58:48.314Z,-3.65
2017-12-21T04:01:15.094Z,-3.68
2017-12-21T04:03:41.887Z,-3.81
2017-12-21T04:06:08.851Z,-3.72
2017-12-21T04:08:35.648Z,-3.76
2017-12-21T04:11:03.192Z,-3.93
2017-12-21T04:13:30.375Z,-3.90
2017-12-21T04:15:57.948Z,-3.94
2017-12-21T04:18:24.610Z,-4.04
2017-12-21T04:20:51.391Z,-3.94
2017-12-21T04:23:18.066Z,-3.83
2017-12-21T04:25:46.254Z,-3.95
2017-12-21T04:28:12.955Z,-3.86
2017-12-21T04:30:39.672Z,-3.77
2017-12-21T04:33:06.342Z,-3.74
2017-12-21T04:35:33.031Z,-3.94
2017-12-21T04:37:59.801Z,-3.82
2017-12-21T04:40:26.507Z,-3.72
2017-12-21T04:42:53.955Z,-3.89
2017-12-21T04:45:21.393Z,-3.97
2017-12-21T04:47:48.066Z,-3.93
2017-12-21T04:50:15.467Z,-3.92
2017-12-21T04:52:42.135Z,-3.83
2017-12-21T04:55:08.856Z,-3.90
2017-12-21T04:57:35.500Z,-3.98
2017-12-21T05:00:03.079Z,-4.00
2017-12-21T05:02:29.777Z,-4.24
2017-12-21T05:04:56.438Z,-4.27
2017-12-21T05:07:23.125Z,-4.25
2017-12-21T05:09:49.834Z,-4.15
2017-12-21T05:12:16.535Z,-4.28
2017-12-21T05:14:44.009Z,-4.16
2017-12-21T05:17:10.666Z,-4.12
2017-12-21T05:19:37.349Z,-4.16
2017-12-21T05:22:04.014Z,-4.10
2017-12-21T05:24:31.397Z,-4.03
2017-12-21T05:26:58.075Z,-4.23
2017-12-21T05:29:24.841Z,-4.42
2017-12-21T05:31:51.480Z,-4.35
2017-12-21T05:34:18.112Z,-4.20
2017-12-21T05:36:44.770Z,-4.25
2017-12-21T05:39:11.426Z,-4.18
2017-12-21T05:41:38.087Z,-4.32
2017-12-21T05:44:05.472Z,-4.12
2017-12-21T05:46:32.386Z,-4.11
2017-12-21T05:48:59.897Z,-4.15
2017-12-21T05:51:26.614Z,-4.30
2017-12-21T05:53:53.281Z,-4.26
2017-12-21T05:56:19.976Z,-4.03
2017-12-21T05:58:47.407Z,-4.01
2017-12-21T06:01:14.126Z,-4.07
2017-12-21T06:03:40.809Z,-4.00
2017-12-21T06:06:07.474Z,-3.97
2017-12-21T06:08:35.145Z,-3.97
2017-12-21T06:11:02.633Z,-3.88
2017-12-21T06:13:29.262Z,-3.95
2017-12-21T06:15:56.000Z,-3.93
2017-12-21T06:18:22.909Z,-3.78
2017-12-21T06:20:49.584Z,-3.90
2017-12-21T06:23:16.302Z,-3.76
2017-12-21T06:25:43.916Z,-3.79
2017-12-21T06:28:10.542Z,-3.82
2017-12-21T06:30:37.185Z,-3.59
2017-12-21T06:33:03.829Z,-3.63
2017-12-21T06:35:30.916Z,-3.55
2017-12-21T06:37:57.566Z,-3.57
2017-12-21T06:40:24.296Z,-3.66
2017-12-21T06:42:51.728Z,-3.56
2017-12-21T06:45:18.397Z,-3.48
2017-12-21T06:47:45.076Z,-3.53
2017-12-21T06:50:11.869Z,-3.56
2017-12-21T06:52:38.522Z,-3.47
2017-12-21T06:55:05.220Z,-3.30
2017-12-21T06:57:32.615Z,-3.23
2017-12-21T06:59:59.275Z,-2.52
2017-12-21T07:02:25.947Z,-1.85
2017-12-21T07:04:52.575Z,-0.96
2017-12-21T07:07:19.302Z,0.13
2017-12-21T07:09:45.977Z,1.22
2017-12-21T07:12:12.642Z,2.30
2017-12-21T07:14:40.053Z,2.68
2017-12-21T07:17:06.777Z,2.68
2017-12-21T07:19:34.380Z,2.95
2017-12-21T07:22:01.029Z,3.71
2017-12-21T07:24:27.747Z,3.36
2017-12-21T07:26:54.389Z,3.61
2017-12-21T07:29:21.030Z,4.97
2017-12-21T07:31:47.708Z,5.79
2017-12-21T07:34:15.090Z,7.54
2017-12-21T07:36:41.753Z,9.14
2017-12-21T07:39:08.450Z,10.77
2017-12-21T07:41:35.080Z,11.87
2017-12-21T07:44:01.738Z,13.38
2017-12-21T07:46:29.142Z,14.66
2017-12-21T07:48:55.782Z,15.63
2017-12-21T07:51:22.433Z,16.78
2017-12-21T07:53:49.118Z,16.62
2017-12-21T07:56:15.748Z,15.46
2017-12-21T07:58:42.406Z,16.42
2017-12-21T08:01:09.061Z,17.48
2017-12-21T08:03:35.742Z,15.39
2017-12-21T08:06:02.393Z,13.53
2017-12-21T08:08:29.349Z,12.43
2017-12-21T08:10:55.991Z,10.95
2017-12-21T08:13:22.624Z,8.57
2017-12-21T08:15:49.639Z,7.82
2017-12-21T08:18:16.340Z,7.45
2017-12-21T08:20:43.002Z,6.81
2017-12-21T08:23:09.638Z,6.37
2017-12-21T08:25:36.263Z,5.11
2017-12-21T08:28:02.954Z,5.65
2017-12-21T08:30:29.628Z,6.57
2017-12-21T08:32:57.173Z,7.48
2017-12-21T08:35:23.902Z,7.89
2017-12-21T08:37:50.552Z,10.45
2017-12-21T08:40:17.205Z,12.91
2017-12-21T08:42:43.884Z,14.41
2017-12-21T08:45:10.536Z,14.08
2017-12-21T08:47:37.209Z,14.62
2017-12-21T08:50:03.914Z,14.81
2017-12-21T08:52:30.570Z,14.02
2017-12-21T08:54:57.213Z,12.77
2017-12-21T08:57:23.885Z,10.71
2017-12-21T08:59:50.536Z,9.50
2017-12-21T09:02:17.214Z,8.82
2017-12-21T09:04:43.888Z,8.18
2017-12-21T09:07:10.534Z,7.31
2017-12-21T09:09:38.183Z,6.75
2017-12-21T09:12:04.874Z,6.36
2017-12-21T09:14:32.469Z,6.32
2017-12-21T09:16:59.156Z,5.03
2017-12-21T09:19:27.578Z,5.53
2017-12-21T09:21:54.245Z,5.52
2017-12-21T09:24:20.894Z,6.14
2017-12-21T09:26:47.551Z,6.55
2017-12-21T09:29:14.222Z,6.12
2017-12-21T09:31:40.883Z,6.59
2017-12-21T09:34:07.611Z,6.75
2017-12-21T09:36:34.267Z,6.35
2017-12-21T09:39:00.943Z,6.44
2017-12-21T09:41:27.646Z,6.89
2017-12-21T09:43:54.311Z,7.39
2017-12-21T09:46:20.946Z,7.80
2017-12-21T09:48:47.632Z,8.96
2017-12-21T09:51:15.073Z,9.83
2017-12-21T09:53:41.711Z,11.15
2017-12-21T09:56:09.117Z,10.97
2017-12-21T09:58:36.540Z,11.40
2017-12-21T10:01:03.197Z,12.23
2017-12-21T10:03:29.860Z,12.30
2017-12-21T10:05:57.345Z,12.89
2017-12-21T10:08:23.991Z,14.50
2017-12-21T10:10:50.696Z,16.32
2017-12-21T10:13:17.329Z,16.08
2017-12-21T10:15:43.980Z,17.57
2017-12-21T10:18:10.679Z,18.44
2017-12-21T10:20:37.306Z,18.11
2017-12-21T10:23:03.959Z,17.66
2017-12-21T10:25:30.675Z,18.81
2017-12-21T10:27:57.321Z,20.12
2017-12-21T10:30:23.945Z,19.95
2017-12-21T10:32:51.367Z,21.10
2017-12-21T10:35:18.041Z,18.34
2017-12-21T10:37:45.465Z,20.05
2017-12-21T10:40:12.114Z,19.65
2017-12-21T10:42:38.765Z,19.95
2017-12-21T10:45:05.434Z,18.98
2017-12-21T10:47:32.841Z,21.19
2017-12-21T10:49:59.488Z,19.92
2017-12-21T10:52:26.168Z,17.85
2017-12-21T10:54:52.819Z,17.23
2017-12-21T10:57:20.210Z,16.29
2017-12-21T10:59:46.859Z,14.42
2017-12-21T11:02:13.777Z,12.02
2017-12-21T11:04:41.161Z,11.76
2017-12-21T11:07:08.584Z,10.28
2017-12-21T11:09:35.997Z,9.54
2017-12-21T11:12:02.783Z,9.34
2017-12-21T11:14:29.409Z,9.18
2017-12-21T11:16:56.129Z,8.80
2017-12-21T11:19:22.811Z,8.01
2017-12-21T11:21:49.485Z,8.02
2017-12-21T11:24:16.199Z,8.88
2017-12-21T11:26:42.889Z,9.80
2017-12-21T11:29:09.545Z,10.14
2017-12-21T11:31:37.211Z,9.95
2017-12-21T11:34:03.875Z,10.09
2017-12-21T11:36:30.530Z,10.98
2017-12-21T11:38:57.214Z,11.37
2017-12-21T11:41:23.884Z,10.49
2017-12-21T11:43:50.546Z,9.96
2017-12-21T11:46:17.311Z,8.93
2017-12-21T11:48:44.731Z,8.93
2017-12-21T11:51:11.418Z,8.09
2017-12-21T11:53:38.825Z,8.33
2017-12-21T11:56:05.454Z,8.04
2017-12-21T11:58:32.123Z,7.73
2017-12-21T12:00:58.839Z,7.42
2017-12-21T12:03:25.501Z,7.26
2017-12-21T12:05:52.216Z,7.52
2017-12-21T12:08:18.913Z,7.63
2017-12-21T12:10:45.693Z,8.12
2017-12-21T12:13:13.141Z,8.04
2017-12-21T12:15:40.667Z,8.30
2017-12-21T12:18:07.423Z,8.65
2017-12-21T12:20:34.859Z,8.27
2017-12-21T12:23:01.520Z,8.53
2017-12-21T12:25:28.163Z,7.96
2017-12-21T12:27:54.836Z,8.21
2017-12-21T12:30:22.221Z,8.97
2017-12-21T12:32:48.936Z,9.13
2017-12-21T12:35:15.589Z,9.46
2017-12-21T12:37:43.061Z,9.83
2017-12-21T12:40:09.730Z,9.85
2017-12-21T12:42:36.373Z,9.70
2017-12-21T12:45:03.177Z,9.19
2017-12-21T12:47:30.680Z,8.90
2017-12-21T12:49:57.315Z,7.89
2017-12-21T12:52:24.728Z,7.63
2017-12-21T12:54:51.420Z,7.34
2017-12-21T12:57:18.063Z,7.13
2017-12-21T12:59:44.718Z,6.54
2017-12-21T13:02:11.474Z,6.12
2017-12-21T13:04:38.981Z,6.08
2017-12-21T13:07:05.632Z,6.04
2017-12-21T13:09:33.159Z,5.85
2017-12-21T13:11:59.817Z,5.83
2017-12-21T13:14:27.224Z,5.56
2017-12-21T13:16:54.001Z,5.79
2017-12-21T13:19:20.641Z,5.70
2017-12-21T13:21:47.334Z,5.65
2017-12-21T13:24:13.983Z,5.46
2017-12-21T13:26:40.686Z,5.42
2017-12-21T13:29:08.174Z,5.35
2017-12-21T13:31:34.935Z,5.16
2017-12-21T13:34:01.589Z,5.15
2017-12-21T13:36:28.268Z,5.19
2017-12-21T13:38:54.920Z,5.14
2017-12-21T13:41:22.712Z,5.31
2017-12-21T13:43:50.369Z,5.34
2017-12-21T13:46:17.803Z,5.13
2017-12-21T13:48:44.488Z,4.88
2017-12-21T13:51:11.151Z,4.85
2017-12-21T13:53:37.823Z,4.69
2017-12-21T13:56:04.494Z,4.63
2017-12-21T13:58:31.199Z,4.46
2017-12-21T14:00:57.985Z,4.41
2017-12-21T14:03:26.245Z,4.21
2017-12-21T14:05:53.027Z,4.21
2017-12-21T14:08:19.718Z,4.34
2017-12-21T14:10:47.150Z,4.37
2017-12-21T14:13:13.849Z,4.32
2017-12-21T14:15:41.331Z,3.90
2017-12-21T14:18:07.986Z,3.74
2017-12-21T14:20:34.648Z,3.52
2017-12-21T14:23:02.345Z,3.33
2017-12-21T14:25:29.338Z,3.29
2017-12-21T14:27:56.004Z,3.54
2017-12-21T14:30:22.702Z,3.57
2017-12-21T14:32:50.119Z,3.62
2017-12-21T14:35:17.029Z,3.54
2017-12-21T14:37:43.709Z,3.65
2017-12-21T14:40:10.379Z,3.73
2017-12-21T14:42:37.028Z,3.75
2017-12-21T14:45:04.048Z,3.45
2017-12-21T14:47:30.767Z,3.32
2017-12-21T14:49:58.187Z,2.98
2017-12-21T14:52:26.481Z,3.09
2017-12-21T14:54:55.406Z,3.16
2017-12-21T14:57:22.043Z,2.93
2017-12-21T14:59:48.699Z,3.06
2017-12-21T15:02:15.347Z,3.05
2017-12-21T15:04:41.984Z,2.85
2017-12-21T15:07:08.654Z,3.02
2017-12-21T15:09:36.229Z,3.06
2017-12-21T15:12:02.933Z,2.70
2017-12-21T15:14:30.557Z,2.79
2017-12-21T15:16:58.910Z,2.78
2017-12-21T15:19:25.619Z,2.84
2017-12-21T15:21:52.302Z,2.86
2017-12-21T15:24:18.950Z,2.66
2017-12-21T15:26:45.627Z,2.66
2017-12-21T15:29:13.000Z,2.63
2017-12-21T15:31:39.659Z,2.47
2017-12-21T15:34:06.325Z,2.62
2017-12-21T15:36:32.978Z,2.65
2017-12-21T15:38:59.661Z,2.50
2017-12-21T15:41:26.331Z,2.48
2017-12-21T15:43:52.996Z,2.25
2017-12-21T15:46:19.642Z,2.30
2017-12-21T15:48:47.212Z,2.20
2017-12-21T15:51:13.900Z,2.16
2017-12-21T15:53:40.610Z,2.31
2017-12-21T15:56:08.003Z,2.43
2017-12-21T15:58:34.653Z,2.45
2017-12-21T16:01:01.282Z,2.38
2017-12-21T16:03:27.960Z,2.47
2017-12-21T16:05:54.761Z,2.32
2017-12-21T16:08:22.241Z,2.36
2017-12-21T16:10:48.972Z,2.46
2017-12-21T16:13:15.657Z,2.55
2017-12-21T16:15:42.982Z,2.44
2017-12-21T16:18:09.687Z,2.67
2017-12-21T16:20:36.660Z,2.56
2017-12-21T16:23:03.335Z,2.58
2017-12-21T16:25:30.027Z,2.51
2017-12-21T16:27:57.450Z,2.70
2017-12-21T16:30:24.094Z,2.64
2017-12-21T16:32:50.792Z,2.59
2017-12-21T16:35:17.442Z,2.49
2017-12-21T16:37:44.110Z,2.49
2017-12-21T16:40:10.861Z,2.77
2017-12-21T16:42:38.515Z,2.70
2017-12-21T16:45:05.189Z,2.70
2017-12-21T16:47:31.903Z,2.53
2017-12-21T16:49:58.574Z,2.27
2017-12-21T16:52:25.314Z,2.24
2017-12-21T16:54:52.039Z,2.50
2017-12-21T16:57:19.904Z,2.77
2017-12-21T16:59:47.394Z,2.92
2017-12-21T17:02:14.944Z,2.89
2017-12-21T17:04:41.655Z,2.78
2017-12-21T17:07:09.306Z,2.77
2017-12-21T17:09:36.770Z,2.86
2017-12-21T17:12:03.460Z,3.19
2017-12-21T17:14:30.343Z,3.09
2017-12-21T17:16:57.806Z,3.25
2017-12-21T17:19:25.283Z,3.24
2017-12-21T17:21:51.971Z,3.17
2017-12-21T17:24:18.697Z,3.17
2017-12-21T17:26:45.465Z,3.19
2017-12-21T17:29:12.140Z,3.18
2017-12-21T17:31:39.569Z,3.33
2017-12-21T17:34:07.036Z,3.24
2017-12-21T17:36:33.777Z,3.19
2017-12-21T17:39:00.571Z,3.14
2017-12-21T17:41:27.242Z,3.19
2017-12-21T17:43:53.999Z,3.02
2017-12-21T17:46:20.680Z,3.08
2017-12-21T17:48:48.078Z,3.14
2017-12-21T17:51:14.770Z,3.05
2017-12-21T17:53:41.461Z,2.98
2017-12-21T17:56:08.879Z,2.96
2017-12-21T17:58:35.549Z,3.16
2017-12-21T18:01:03.303Z,3.29
2017-12-21T18:03:30.727Z,3.37
2017-12-21T18:05:57.398Z,3.30
2017-12-21T18:08:25.426Z,3.21
2017-12-21T18:10:52.432Z,3.07
2017-12-21T18:13:19.859Z,3.16
2017-12-21T18:15:46.523Z,2.86
2017-12-21T18:18:13.446Z,2.80
2017-12-21T18:20:40.141Z,3.02
2017-12-21T18:23:06.820Z,3.09
2017-12-21T18:25:33.542Z,3.08
2017-12-21T18:28:00.218Z,2.87
2017-12-21T18:30:28.808Z,2.95
2017-12-21T18:32:56.343Z,2.99
2017-12-21T18:35:23.158Z,3.12
2017-12-21T18:37:50.718Z,3.13
2017-12-21T18:40:18.136Z,2.90
2017-12-21T18:42:44.935Z,2.97
2017-12-21T18:45:12.138Z,2.87
2017-12-21T18:47:38.831Z,2.94
2017-12-21T18:50:05.567Z,2.99
2017-12-21T18:52:32.937Z,3.07
2017-12-21T18:54:59.630Z,2.78
2017-12-21T18:57:26.347Z,2.82
2017-12-21T18:59:53.096Z,2.70
2017-12-21T19:02:19.913Z,2.85
2017-12-21T19:04:47.930Z,2.80
2017-12-21T19:07:14.695Z,2.87
2017-12-21T19:09:41.376Z,2.92
2017-12-21T19:12:09.005Z,2.84
2017-12-21T19:14:35.762Z,2.80
2017-12-21T19:17:03.223Z,2.65
2017-12-21T19:19:30.739Z,2.42
2017-12-21T19:21:57.465Z,2.03
2017-12-21T19:24:24.150Z,1.90
2017-12-21T19:26:50.874Z,1.83
2017-12-21T19:29:17.587Z,2.00
2017-12-21T19:31:44.254Z,2.25
2017-12-21T19:34:11.821Z,2.34
2017-12-21T19:36:38.509Z,2.10
2017-12-21T19:39:05.958Z,2.07
2017-12-21T19:41:32.943Z,2.07
2017-12-21T19:43:59.621Z,1.60
2017-12-21T19:46:28.563Z,1.81
2017-12-21T19:48:55.270Z,1.85
2017-12-21T19:51:21.997Z,1.76
2017-12-21T19:53:48.657Z,1.88
2017-12-21T19:56:15.402Z,1.66
2017-12-21T19:58:42.083Z,1.77
2017-12-21T20:01:09.547Z,1.58
2017-12-21T20:03:36.982Z,1.72
2017-12-21T20:06:04.492Z,1.59
2017-12-21T20:08:31.130Z,1.41
2017-12-21T20:10:57.818Z,1.40
2017-12-21T20:13:25.642Z,1.28
2017-12-21T20:15:53.135Z,1.31
2017-12-21T20:18:20.012Z,1.38
2017-12-21T20:20:47.522Z,1.31
2017-12-21T20:23:14.202Z,1.42
2017-12-21T20:25:41.384Z,1.23
2017-12-21T20:28:08.929Z,1.44
2017-12-21T20:30:35.641Z,1.47
2017-12-21T20:33:02.358Z,1.32
2017-12-21T20:35:30.195Z,1.20
2017-12-21T20:37:58.509Z,1.35
2017-12-21T20:40:25.610Z,1.56
2017-12-21T20:42:52.261Z,1.81
2017-12-21T20:45:18.919Z,1.86
2017-12-21T20:47:45.632Z,1.91
2017-12-21T20:50:12.487Z,1.95
2017-12-21T20:52:39.213Z,1.96
2017-12-21T20:55:05.899Z,2.03
2017-12-21T20:57:32.591Z,2.01
2017-12-21T20:59:59.247Z,2.14
2017-12-21T21:02:26.034Z,1.88
2017-12-21T21:04:53.788Z,1.85
2017-12-21T21:07:20.459Z,1.88
2017-12-21T21:09:47.128Z,1.79
2017-12-21T21:12:14.862Z,1.99
2017-12-21T21:14:42.369Z,2.16
2017-12-21T21:17:09.614Z,2.19
2017-12-21T21:19:36.433Z,2.00
2017-12-21T21:22:03.873Z,1.63
2017-12-21T21:24:30.615Z,1.43
2017-12-21T21:26:57.289Z,1.76
2017-12-21T21:29:24.405Z,1.81
2017-12-21T21:31:51.095Z,1.70
2017-12-21T21:34:17.778Z,1.95
2017-12-21T21:36:44.492Z,2.01
2017-12-21T21:39:11.194Z,2.02
2017-12-21T21:41:38.608Z,2.17
2017-12-21T21:44:07.361Z,1.83
2017-12-21T21:46:34.031Z,1.83
2017-12-21T21:49:00.702Z,2.06
2017-12-21T21:51:27.748Z,2.08
2017-12-21T21:53:54.446Z,2.22
2017-12-21T21:56:21.141Z,1.95
2017-12-21T21:58:48.650Z,1.93
2017-12-21T22:01:15.549Z,2.13
2017-12-21T22:03:42.267Z,2.09
2017-12-21T22:06:08.989Z,2.04
2017-12-21T22:08:35.677Z,1.94
2017-12-21T22:11:02.421Z,2.12
2017-12-21T22:13:29.169Z,1.97
2017-12-21T22:15:55.894Z,1.94
2017-12-21T22:18:22.581Z,2.09
2017-12-21T22:20:50.175Z,2.20
2017-12-21T22:23:17.677Z,2.43
2017-12-21T22:25:44.972Z,2.19
2017-12-21T22:28:12.478Z,2.34
2017-12-21T22:30:39.158Z,2.04
2017-12-21T22:33:06.724Z,2.03
2017-12-21T22:35:33.382Z,2.14
2017-12-21T22:38:00.785Z,2.05
2017-12-21T22:40:27.499Z,1.83
2017-12-21T22:42:55.933Z,1.79
2017-12-21T22:45:22.613Z,1.68
2017-12-21T22:47:50.039Z,1.50
2017-12-21T22:50:17.749Z,1.54
2017-12-21T22:52:44.438Z,1.34
2017-12-21T22:55:11.107Z,1.33
2017-12-21T22:57:37.788Z,1.48
2017-12-21T23:00:04.602Z,1.67
2017-12-21T23:02:31.257Z,1.76
2017-12-21T23:04:58.672Z,1.71
2017-12-21T23:07:25.350Z,1.67
2017-12-21T23:09:52.913Z,1.66
2017-12-21T23:12:20.347Z,1.65
2017-12-21T23:14:47.169Z,1.58
2017-12-21T23:17:13.823Z,1.62
2017-12-21T23:19:40.651Z,1.64
2017-12-21T23:22:07.357Z,1.67
2017-12-21T23:24:34.794Z,1.74
2017-12-21T23:27:01.511Z,1.50
2017-12-21T23:29:28.161Z,1.66
2017-12-21T23:31:54.841Z,1.65
2017-12-21T23:34:22.340Z,1.71
2017-12-21T23:36:49.203Z,1.61
2017-12-21T23:39:15.892Z,1.63
2017-12-21T23:41:42.550Z,1.59
2017-12-21T23:44:09.969Z,1.60
2017-12-21T23:46:36.689Z,1.54
2017-12-21T23:49:04.176Z,1.83
2017-12-21T23:51:30.914Z,1.53
2017-12-21T23:53:57.594Z,1.35
2017-12-21T23:56:25.133Z,1.21
2017-12-21T23:58:51.751Z,1.19
